sensor_id;sensor_type;location;lat;lon;timestamp;P1;durP1;ratioP1;P2;durP2;ratioP2
32760;SDS011;19126;47.472;7.850;2023-05-07T00:01:08;6.50;;;4.55;;
32760;SDS011;19126;47.472;7.850;2023-05-07T00:03:36;7.07;;;4.63;;
32760;SDS011;19126;47.472;7.850;2023-05-07T00:06:04;7.88;;;4.45;;
32760;SDS011;19126;47.472;7.850;2023-05-07T00:08:31;7.93;;;4.60;;
32760;SDS011;19126;47.472;7.850;2023-05-07T00:10:58;6.43;;;4.57;;
32760;SDS011;19126;47.472;7.850;2023-05-07T00:13:26;9.15;;;4.60;;
32760;SDS011;19126;47.472;7.850;2023-05-07T00:15:55;6.53;;;4.93;;
32760;SDS011;19126;47.472;7.850;2023-05-07T00:18:24;9.30;;;4.63;;
32760;SDS011;19126;47.472;7.850;2023-05-07T00:20:51;8.55;;;4.97;;
32760;SDS011;19126;47.472;7.850;2023-05-07T00:23:19;6.50;;;4.10;;
32760;SDS011;19126;47.472;7.850;2023-05-07T00:25:46;6.95;;;4.13;;
32760;SDS011;19126;47.472;7.850;2023-05-07T00:28:13;7.10;;;5.00;;
32760;SDS011;19126;47.472;7.850;2023-05-07T00:30:41;8.73;;;4.40;;
32760;SDS011;19126;47.472;7.850;2023-05-07T00:33:08;8.05;;;4.53;;
32760;SDS011;19126;47.472;7.850;2023-05-07T00:35:37;10.00;;;3.83;;
32760;SDS011;19126;47.472;7.850;2023-05-07T00:38:04;7.05;;;4.63;;
32760;SDS011;19126;47.472;7.850;2023-05-07T00:40:31;7.40;;;4.75;;
32760;SDS011;19126;47.472;7.850;2023-05-07T00:42:59;7.68;;;4.97;;
32760;SDS011;19126;47.472;7.850;2023-05-07T00:45:26;13.65;;;4.53;;
32760;SDS011;19126;47.472;7.850;2023-05-07T00:47:55;10.77;;;5.05;;
32760;SDS011;19126;47.472;7.850;2023-05-07T00:50:23;5.63;;;4.18;;
32760;SDS011;19126;47.472;7.850;2023-05-07T00:52:53;7.53;;;5.20;;
32760;SDS011;19126;47.472;7.850;2023-05-07T00:55:21;8.45;;;4.43;;
32760;SDS011;19126;47.472;7.850;2023-05-07T00:57:50;4.97;;;4.25;;
32760;SDS011;19126;47.472;7.850;2023-05-07T01:00:17;4.97;;;4.15;;
32760;SDS011;19126;47.472;7.850;2023-05-07T01:02:45;12.35;;;4.70;;
32760;SDS011;19126;47.472;7.850;2023-05-07T01:05:13;7.00;;;4.28;;
32760;SDS011;19126;47.472;7.850;2023-05-07T01:07:43;10.27;;;4.60;;
32760;SDS011;19126;47.472;7.850;2023-05-07T01:10:13;7.30;;;4.57;;
32760;SDS011;19126;47.472;7.850;2023-05-07T01:12:41;9.82;;;4.60;;
32760;SDS011;19126;47.472;7.850;2023-05-07T01:15:09;12.30;;;4.15;;
32760;SDS011;19126;47.472;7.850;2023-05-07T01:17:37;12.68;;;5.03;;
32760;SDS011;19126;47.472;7.850;2023-05-07T01:20:07;14.18;;;5.32;;
32760;SDS011;19126;47.472;7.850;2023-05-07T01:22:38;8.38;;;4.88;;
32760;SDS011;19126;47.472;7.850;2023-05-07T01:25:06;11.32;;;4.80;;
32760;SDS011;19126;47.472;7.850;2023-05-07T01:27:34;10.52;;;4.47;;
32760;SDS011;19126;47.472;7.850;2023-05-07T01:30:02;6.18;;;4.22;;
32760;SDS011;19126;47.472;7.850;2023-05-07T01:32:32;5.82;;;4.38;;
32760;SDS011;19126;47.472;7.850;2023-05-07T01:35:07;8.15;;;5.13;;
32760;SDS011;19126;47.472;7.850;2023-05-07T01:37:40;6.82;;;5.45;;
32760;SDS011;19126;47.472;7.850;2023-05-07T01:40:08;12.75;;;4.82;;
32760;SDS011;19126;47.472;7.850;2023-05-07T01:42:36;6.80;;;5.13;;
32760;SDS011;19126;47.472;7.850;2023-05-07T01:45:05;7.53;;;4.90;;
32760;SDS011;19126;47.472;7.850;2023-05-07T01:47:34;8.85;;;4.40;;
32760;SDS011;19126;47.472;7.850;2023-05-07T01:50:02;7.47;;;5.03;;
32760;SDS011;19126;47.472;7.850;2023-05-07T01:52:33;6.95;;;4.30;;
32760;SDS011;19126;47.472;7.850;2023-05-07T01:55:02;8.43;;;4.88;;
32760;SDS011;19126;47.472;7.850;2023-05-07T01:57:30;4.88;;;4.38;;
32760;SDS011;19126;47.472;7.850;2023-05-07T01:59:57;7.22;;;4.10;;
32760;SDS011;19126;47.472;7.850;2023-05-07T02:02:24;7.22;;;4.30;;
32760;SDS011;19126;47.472;7.850;2023-05-07T02:04:52;6.35;;;4.47;;
32760;SDS011;19126;47.472;7.850;2023-05-07T02:07:19;14.40;;;4.70;;
32760;SDS011;19126;47.472;7.850;2023-05-07T02:09:46;9.27;;;5.00;;
32760;SDS011;19126;47.472;7.850;2023-05-07T02:12:15;7.47;;;4.63;;
32760;SDS011;19126;47.472;7.850;2023-05-07T02:14:42;10.02;;;4.97;;
32760;SDS011;19126;47.472;7.850;2023-05-07T02:17:10;9.68;;;4.78;;
32760;SDS011;19126;47.472;7.850;2023-05-07T02:19:37;7.32;;;4.82;;
32760;SDS011;19126;47.472;7.850;2023-05-07T02:22:04;6.55;;;4.35;;
32760;SDS011;19126;47.472;7.850;2023-05-07T02:24:32;9.32;;;4.43;;
32760;SDS011;19126;47.472;7.850;2023-05-07T02:26:59;8.80;;;4.50;;
32760;SDS011;19126;47.472;7.850;2023-05-07T02:29:28;10.30;;;4.25;;
32760;SDS011;19126;47.472;7.850;2023-05-07T02:31:56;11.88;;;4.22;;
32760;SDS011;19126;47.472;7.850;2023-05-07T02:34:23;6.78;;;4.40;;
32760;SDS011;19126;47.472;7.850;2023-05-07T02:36:50;11.13;;;4.30;;
32760;SDS011;19126;47.472;7.850;2023-05-07T02:39:17;5.60;;;4.25;;
32760;SDS011;19126;47.472;7.850;2023-05-07T02:41:45;7.78;;;4.82;;
32760;SDS011;19126;47.472;7.850;2023-05-07T02:44:12;10.02;;;4.53;;
32760;SDS011;19126;47.472;7.850;2023-05-07T02:46:41;11.20;;;6.05;;
32760;SDS011;19126;47.472;7.850;2023-05-07T02:49:08;11.60;;;5.00;;
32760;SDS011;19126;47.472;7.850;2023-05-07T02:51:35;7.95;;;6.72;;
32760;SDS011;19126;47.472;7.850;2023-05-07T02:54:02;9.20;;;5.45;;
32760;SDS011;19126;47.472;7.850;2023-05-07T02:56:30;13.18;;;5.70;;
32760;SDS011;19126;47.472;7.850;2023-05-07T02:58:57;8.68;;;5.05;;
32760;SDS011;19126;47.472;7.850;2023-05-07T03:01:25;5.32;;;4.50;;
32760;SDS011;19126;47.472;7.850;2023-05-07T03:03:54;6.63;;;4.65;;
32760;SDS011;19126;47.472;7.850;2023-05-07T03:06:21;9.50;;;4.53;;
32760;SDS011;19126;47.472;7.850;2023-05-07T03:08:49;8.40;;;5.22;;
32760;SDS011;19126;47.472;7.850;2023-05-07T03:11:16;15.80;;;5.68;;
32760;SDS011;19126;47.472;7.850;2023-05-07T03:13:43;11.73;;;5.78;;
32760;SDS011;19126;47.472;7.850;2023-05-07T03:16:11;9.10;;;5.55;;
32760;SDS011;19126;47.472;7.850;2023-05-07T03:18:38;8.32;;;5.45;;
32760;SDS011;19126;47.472;7.850;2023-05-07T03:21:06;6.30;;;5.15;;
32760;SDS011;19126;47.472;7.850;2023-05-07T03:23:34;9.52;;;6.18;;
32760;SDS011;19126;47.472;7.850;2023-05-07T03:26:01;6.28;;;5.28;;
32760;SDS011;19126;47.472;7.850;2023-05-07T03:28:29;7.15;;;5.75;;
32760;SDS011;19126;47.472;7.850;2023-05-07T03:30:56;8.70;;;5.82;;
32760;SDS011;19126;47.472;7.850;2023-05-07T03:33:23;8.85;;;5.22;;
32760;SDS011;19126;47.472;7.850;2023-05-07T03:35:50;11.60;;;6.68;;
32760;SDS011;19126;47.472;7.850;2023-05-07T03:38:19;11.77;;;6.65;;
32760;SDS011;19126;47.472;7.850;2023-05-07T03:40:47;12.68;;;5.70;;
32760;SDS011;19126;47.472;7.850;2023-05-07T03:43:15;8.27;;;5.85;;
32760;SDS011;19126;47.472;7.850;2023-05-07T03:45:42;6.47;;;5.47;;
32760;SDS011;19126;47.472;7.850;2023-05-07T03:48:09;9.35;;;5.53;;
32760;SDS011;19126;47.472;7.850;2023-05-07T03:50:37;9.32;;;5.38;;
32760;SDS011;19126;47.472;7.850;2023-05-07T03:53:04;7.43;;;5.47;;
32760;SDS011;19126;47.472;7.850;2023-05-07T03:55:33;9.23;;;6.03;;
32760;SDS011;19126;47.472;7.850;2023-05-07T03:58:00;5.93;;;5.32;;
32760;SDS011;19126;47.472;7.850;2023-05-07T04:00:28;9.95;;;5.55;;
32760;SDS011;19126;47.472;7.850;2023-05-07T04:02:58;7.05;;;5.07;;
32760;SDS011;19126;47.472;7.850;2023-05-07T04:05:25;11.27;;;5.32;;
32760;SDS011;19126;47.472;7.850;2023-05-07T04:07:53;8.73;;;5.45;;
32760;SDS011;19126;47.472;7.850;2023-05-07T04:10:20;8.13;;;5.60;;
32760;SDS011;19126;47.472;7.850;2023-05-07T04:12:49;7.07;;;5.57;;
32760;SDS011;19126;47.472;7.850;2023-05-07T04:15:16;13.20;;;6.07;;
32760;SDS011;19126;47.472;7.850;2023-05-07T04:17:44;6.05;;;5.30;;
32760;SDS011;19126;47.472;7.850;2023-05-07T04:20:13;10.65;;;6.47;;
32760;SDS011;19126;47.472;7.850;2023-05-07T04:22:42;12.02;;;7.13;;
32760;SDS011;19126;47.472;7.850;2023-05-07T04:25:10;7.40;;;6.25;;
32760;SDS011;19126;47.472;7.850;2023-05-07T04:27:37;10.88;;;7.47;;
32760;SDS011;19126;47.472;7.850;2023-05-07T04:30:07;11.63;;;6.68;;
32760;SDS011;19126;47.472;7.850;2023-05-07T04:32:35;10.02;;;6.18;;
32760;SDS011;19126;47.472;7.850;2023-05-07T04:35:02;9.40;;;6.85;;
32760;SDS011;19126;47.472;7.850;2023-05-07T04:37:31;9.48;;;7.07;;
32760;SDS011;19126;47.472;7.850;2023-05-07T04:39:58;9.02;;;6.30;;
32760;SDS011;19126;47.472;7.850;2023-05-07T04:42:27;15.45;;;7.15;;
32760;SDS011;19126;47.472;7.850;2023-05-07T04:44:55;7.72;;;6.57;;
32760;SDS011;19126;47.472;7.850;2023-05-07T04:47:23;18.33;;;7.18;;
32760;SDS011;19126;47.472;7.850;2023-05-07T04:49:51;11.98;;;6.00;;
32760;SDS011;19126;47.472;7.850;2023-05-07T04:52:18;7.65;;;6.60;;
32760;SDS011;19126;47.472;7.850;2023-05-07T04:54:45;13.40;;;7.13;;
32760;SDS011;19126;47.472;7.850;2023-05-07T04:57:12;9.13;;;5.97;;
32760;SDS011;19126;47.472;7.850;2023-05-07T04:59:42;16.70;;;7.28;;
32760;SDS011;19126;47.472;7.850;2023-05-07T05:02:09;11.43;;;7.60;;
32760;SDS011;19126;47.472;7.850;2023-05-07T05:04:38;8.68;;;6.50;;
32760;SDS011;19126;47.472;7.850;2023-05-07T05:07:05;10.38;;;6.50;;
32760;SDS011;19126;47.472;7.850;2023-05-07T05:09:33;7.97;;;6.75;;
32760;SDS011;19126;47.472;7.850;2023-05-07T05:12:00;13.95;;;6.38;;
32760;SDS011;19126;47.472;7.850;2023-05-07T05:14:27;10.80;;;6.22;;
32760;SDS011;19126;47.472;7.850;2023-05-07T05:16:55;6.97;;;6.25;;
32760;SDS011;19126;47.472;7.850;2023-05-07T05:19:22;15.27;;;6.97;;
32760;SDS011;19126;47.472;7.850;2023-05-07T05:21:51;10.38;;;6.68;;
32760;SDS011;19126;47.472;7.850;2023-05-07T05:24:18;10.43;;;6.88;;
32760;SDS011;19126;47.472;7.850;2023-05-07T05:26:46;6.95;;;5.53;;
32760;SDS011;19126;47.472;7.850;2023-05-07T05:29:13;6.60;;;5.82;;
32760;SDS011;19126;47.472;7.850;2023-05-07T05:31:40;11.90;;;6.25;;
32760;SDS011;19126;47.472;7.850;2023-05-07T05:34:08;9.25;;;5.68;;
32760;SDS011;19126;47.472;7.850;2023-05-07T05:36:35;11.77;;;5.47;;
32760;SDS011;19126;47.472;7.850;2023-05-07T05:39:03;8.98;;;5.85;;
32760;SDS011;19126;47.472;7.850;2023-05-07T05:41:31;15.57;;;5.78;;
32760;SDS011;19126;47.472;7.850;2023-05-07T05:43:58;8.63;;;5.45;;
32760;SDS011;19126;47.472;7.850;2023-05-07T05:46:25;12.02;;;5.38;;
32760;SDS011;19126;47.472;7.850;2023-05-07T05:48:53;11.25;;;5.60;;
32760;SDS011;19126;47.472;7.850;2023-05-07T05:51:20;10.60;;;5.53;;
32760;SDS011;19126;47.472;7.850;2023-05-07T05:53:48;9.60;;;4.50;;
32760;SDS011;19126;47.472;7.850;2023-05-07T05:56:17;6.15;;;5.22;;
32760;SDS011;19126;47.472;7.850;2023-05-07T05:58:44;8.52;;;5.70;;
32760;SDS011;19126;47.472;7.850;2023-05-07T06:01:12;8.25;;;5.50;;
32760;SDS011;19126;47.472;7.850;2023-05-07T06:03:39;15.50;;;5.68;;
32760;SDS011;19126;47.472;7.850;2023-05-07T06:06:07;9.88;;;5.78;;
32760;SDS011;19126;47.472;7.850;2023-05-07T06:08:34;9.82;;;6.03;;
32760;SDS011;19126;47.472;7.850;2023-05-07T06:11:02;10.50;;;7.07;;
32760;SDS011;19126;47.472;7.850;2023-05-07T06:13:32;14.85;;;6.88;;
32760;SDS011;19126;47.472;7.850;2023-05-07T06:15:59;6.55;;;5.65;;
32760;SDS011;19126;47.472;7.850;2023-05-07T06:18:26;7.03;;;5.15;;
32760;SDS011;19126;47.472;7.850;2023-05-07T06:20:53;7.28;;;5.50;;
32760;SDS011;19126;47.472;7.850;2023-05-07T06:23:21;8.50;;;5.32;;
32760;SDS011;19126;47.472;7.850;2023-05-07T06:25:48;5.95;;;4.72;;
32760;SDS011;19126;47.472;7.850;2023-05-07T06:28:16;8.10;;;4.78;;
32760;SDS011;19126;47.472;7.850;2023-05-07T06:30:45;7.18;;;4.40;;
32760;SDS011;19126;47.472;7.850;2023-05-07T06:33:13;7.57;;;4.60;;
32760;SDS011;19126;47.472;7.850;2023-05-07T06:35:41;12.50;;;4.82;;
32760;SDS011;19126;47.472;7.850;2023-05-07T06:38:08;7.05;;;4.45;;
32760;SDS011;19126;47.472;7.850;2023-05-07T06:40:37;9.82;;;4.35;;
32760;SDS011;19126;47.472;7.850;2023-05-07T06:43:05;6.20;;;4.75;;
32760;SDS011;19126;47.472;7.850;2023-05-07T06:45:32;8.48;;;4.25;;
32760;SDS011;19126;47.472;7.850;2023-05-07T06:48:00;6.72;;;4.30;;
32760;SDS011;19126;47.472;7.850;2023-05-07T06:50:28;12.73;;;4.15;;
32760;SDS011;19126;47.472;7.850;2023-05-07T06:52:55;7.57;;;4.07;;
32760;SDS011;19126;47.472;7.850;2023-05-07T06:55:23;5.15;;;4.10;;
32760;SDS011;19126;47.472;7.850;2023-05-07T06:57:50;5.60;;;4.07;;
32760;SDS011;19126;47.472;7.850;2023-05-07T07:00:18;5.82;;;3.90;;
32760;SDS011;19126;47.472;7.850;2023-05-07T07:02:46;4.72;;;3.42;;
32760;SDS011;19126;47.472;7.850;2023-05-07T07:05:15;7.03;;;3.75;;
32760;SDS011;19126;47.472;7.850;2023-05-07T07:07:42;11.70;;;3.17;;
32760;SDS011;19126;47.472;7.850;2023-05-07T07:10:10;4.25;;;3.35;;
32760;SDS011;19126;47.472;7.850;2023-05-07T07:12:37;6.03;;;3.08;;
32760;SDS011;19126;47.472;7.850;2023-05-07T07:15:05;3.67;;;3.10;;
32760;SDS011;19126;47.472;7.850;2023-05-07T07:17:33;5.57;;;3.10;;
32760;SDS011;19126;47.472;7.850;2023-05-07T07:20:00;7.95;;;3.38;;
32760;SDS011;19126;47.472;7.850;2023-05-07T07:22:30;6.97;;;3.20;;
32760;SDS011;19126;47.472;7.850;2023-05-07T07:24:57;7.25;;;3.25;;
32760;SDS011;19126;47.472;7.850;2023-05-07T07:27:25;6.20;;;3.22;;
32760;SDS011;19126;47.472;7.850;2023-05-07T07:29:52;6.65;;;3.80;;
32760;SDS011;19126;47.472;7.850;2023-05-07T07:32:19;4.80;;;2.92;;
32760;SDS011;19126;47.472;7.850;2023-05-07T07:34:46;6.47;;;3.40;;
32760;SDS011;19126;47.472;7.850;2023-05-07T07:37:14;7.13;;;3.53;;
32760;SDS011;19126;47.472;7.850;2023-05-07T07:39:42;9.93;;;2.90;;
32760;SDS011;19126;47.472;7.850;2023-05-07T07:42:10;5.18;;;3.20;;
32760;SDS011;19126;47.472;7.850;2023-05-07T07:44:37;5.88;;;2.75;;
32760;SDS011;19126;47.472;7.850;2023-05-07T07:47:05;6.78;;;3.00;;
32760;SDS011;19126;47.472;7.850;2023-05-07T07:49:33;9.90;;;3.67;;
32760;SDS011;19126;47.472;7.850;2023-05-07T07:52:00;8.30;;;2.97;;
32760;SDS011;19126;47.472;7.850;2023-05-07T07:54:27;5.35;;;3.03;;
32760;SDS011;19126;47.472;7.850;2023-05-07T07:56:56;4.43;;;2.80;;
32760;SDS011;19126;47.472;7.850;2023-05-07T07:59:24;5.00;;;2.92;;
32760;SDS011;19126;47.472;7.850;2023-05-07T08:01:51;4.75;;;2.67;;
32760;SDS011;19126;47.472;7.850;2023-05-07T08:04:20;5.57;;;2.67;;
32760;SDS011;19126;47.472;7.850;2023-05-07T08:06:48;3.88;;;2.53;;
32760;SDS011;19126;47.472;7.850;2023-05-07T08:09:15;7.47;;;2.58;;
32760;SDS011;19126;47.472;7.850;2023-05-07T08:11:42;6.38;;;2.63;;
32760;SDS011;19126;47.472;7.850;2023-05-07T08:14:11;8.55;;;2.38;;
32760;SDS011;19126;47.472;7.850;2023-05-07T08:16:40;3.92;;;2.60;;
32760;SDS011;19126;47.472;7.850;2023-05-07T08:19:08;11.82;;;2.60;;
32760;SDS011;19126;47.472;7.850;2023-05-07T08:21:38;7.95;;;2.65;;
32760;SDS011;19126;47.472;7.850;2023-05-07T08:24:05;5.85;;;2.75;;
32760;SDS011;19126;47.472;7.850;2023-05-07T08:26:33;2.70;;;2.00;;
32760;SDS011;19126;47.472;7.850;2023-05-07T08:29:01;6.22;;;2.83;;
32760;SDS011;19126;47.472;7.850;2023-05-07T08:31:29;5.60;;;2.33;;
32760;SDS011;19126;47.472;7.850;2023-05-07T08:33:57;8.43;;;2.60;;
32760;SDS011;19126;47.472;7.850;2023-05-07T08:36:24;8.23;;;2.35;;
32760;SDS011;19126;47.472;7.850;2023-05-07T08:38:52;5.75;;;2.65;;
32760;SDS011;19126;47.472;7.850;2023-05-07T08:41:20;6.30;;;2.22;;
32760;SDS011;19126;47.472;7.850;2023-05-07T08:43:48;9.43;;;2.70;;
32760;SDS011;19126;47.472;7.850;2023-05-07T08:46:17;5.72;;;2.42;;
32760;SDS011;19126;47.472;7.850;2023-05-07T08:48:49;4.60;;;2.63;;
32760;SDS011;19126;47.472;7.850;2023-05-07T08:51:17;6.53;;;2.65;;
32760;SDS011;19126;47.472;7.850;2023-05-07T08:53:46;3.58;;;2.22;;
32760;SDS011;19126;47.472;7.850;2023-05-07T08:56:15;5.43;;;2.28;;
32760;SDS011;19126;47.472;7.850;2023-05-07T08:58:43;10.40;;;2.75;;
32760;SDS011;19126;47.472;7.850;2023-05-07T09:01:12;3.03;;;2.40;;
32760;SDS011;19126;47.472;7.850;2023-05-07T09:03:41;7.68;;;2.40;;
32760;SDS011;19126;47.472;7.850;2023-05-07T09:06:13;7.55;;;3.08;;
32760;SDS011;19126;47.472;7.850;2023-05-07T09:08:43;5.32;;;2.63;;
32760;SDS011;19126;47.472;7.850;2023-05-07T09:11:19;4.93;;;2.45;;
32760;SDS011;19126;47.472;7.850;2023-05-07T09:13:47;5.83;;;2.30;;
32760;SDS011;19126;47.472;7.850;2023-05-07T09:16:15;3.40;;;2.38;;
32760;SDS011;19126;47.472;7.850;2023-05-07T09:18:42;3.83;;;2.30;;
32760;SDS011;19126;47.472;7.850;2023-05-07T09:21:11;4.70;;;2.08;;
32760;SDS011;19126;47.472;7.850;2023-05-07T09:23:44;4.97;;;2.67;;
32760;SDS011;19126;47.472;7.850;2023-05-07T09:26:11;8.68;;;2.58;;
32760;SDS011;19126;47.472;7.850;2023-05-07T09:28:39;4.82;;;2.20;;
32760;SDS011;19126;47.472;7.850;2023-05-07T09:31:07;8.73;;;2.47;;
32760;SDS011;19126;47.472;7.850;2023-05-07T09:33:35;4.88;;;2.28;;
32760;SDS011;19126;47.472;7.850;2023-05-07T09:36:03;6.60;;;2.70;;
32760;SDS011;19126;47.472;7.850;2023-05-07T09:38:33;8.43;;;2.72;;
32760;SDS011;19126;47.472;7.850;2023-05-07T09:41:01;6.47;;;3.17;;
32760;SDS011;19126;47.472;7.850;2023-05-07T09:43:33;12.90;;;2.85;;
32760;SDS011;19126;47.472;7.850;2023-05-07T09:46:02;5.93;;;2.90;;
32760;SDS011;19126;47.472;7.850;2023-05-07T09:48:34;10.02;;;2.88;;
32760;SDS011;19126;47.472;7.850;2023-05-07T09:51:06;9.88;;;3.25;;
32760;SDS011;19126;47.472;7.850;2023-05-07T09:53:44;13.98;;;2.80;;
32760;SDS011;19126;47.472;7.850;2023-05-07T09:56:13;6.82;;;3.03;;
32760;SDS011;19126;47.472;7.850;2023-05-07T09:58:41;8.48;;;3.20;;
32760;SDS011;19126;47.472;7.850;2023-05-07T10:01:10;5.97;;;3.03;;
32760;SDS011;19126;47.472;7.850;2023-05-07T10:03:39;4.63;;;3.10;;
32760;SDS011;19126;47.472;7.850;2023-05-07T10:06:08;12.38;;;3.40;;
32760;SDS011;19126;47.472;7.850;2023-05-07T10:08:36;5.78;;;3.15;;
32760;SDS011;19126;47.472;7.850;2023-05-07T10:11:05;9.80;;;3.13;;
32760;SDS011;19126;47.472;7.850;2023-05-07T10:13:32;5.57;;;3.38;;
32760;SDS011;19126;47.472;7.850;2023-05-07T10:16:02;5.13;;;3.17;;
32760;SDS011;19126;47.472;7.850;2023-05-07T10:18:31;7.53;;;3.30;;
32760;SDS011;19126;47.472;7.850;2023-05-07T10:21:02;6.25;;;3.00;;
32760;SDS011;19126;47.472;7.850;2023-05-07T10:23:33;4.57;;;2.83;;
32760;SDS011;19126;47.472;7.850;2023-05-07T10:26:02;5.07;;;3.53;;
32760;SDS011;19126;47.472;7.850;2023-05-07T10:31:20;10.38;;;3.88;;
32760;SDS011;19126;47.472;7.850;2023-05-07T10:34:07;14.25;;;3.55;;
32760;SDS011;19126;47.472;7.850;2023-05-07T10:36:37;11.93;;;4.60;;
32760;SDS011;19126;47.472;7.850;2023-05-07T10:39:05;5.20;;;3.88;;
32760;SDS011;19126;47.472;7.850;2023-05-07T10:41:34;11.43;;;4.05;;
32760;SDS011;19126;47.472;7.850;2023-05-07T10:44:02;34.05;;;6.45;;
32760;SDS011;19126;47.472;7.850;2023-05-07T10:46:29;17.98;;;6.20;;
32760;SDS011;19126;47.472;7.850;2023-05-07T10:49:06;24.63;;;6.93;;
32760;SDS011;19126;47.472;7.850;2023-05-07T10:51:37;16.88;;;6.35;;
32760;SDS011;19126;47.472;7.850;2023-05-07T10:54:21;13.38;;;5.20;;
32760;SDS011;19126;47.472;7.850;2023-05-07T10:56:51;10.43;;;4.85;;
32760;SDS011;19126;47.472;7.850;2023-05-07T10:59:34;11.80;;;5.80;;
32760;SDS011;19126;47.472;7.850;2023-05-07T11:02:11;7.93;;;5.38;;
32760;SDS011;19126;47.472;7.850;2023-05-07T11:04:40;13.32;;;5.63;;
32760;SDS011;19126;47.472;7.850;2023-05-07T11:07:22;13.77;;;4.85;;
32760;SDS011;19126;47.472;7.850;2023-05-07T11:10:04;10.77;;;5.40;;
32760;SDS011;19126;47.472;7.850;2023-05-07T11:12:49;15.00;;;4.80;;
32760;SDS011;19126;47.472;7.850;2023-05-07T11:15:40;14.38;;;5.38;;
32760;SDS011;19126;47.472;7.850;2023-05-07T11:18:10;10.18;;;5.63;;
32760;SDS011;19126;47.472;7.850;2023-05-07T11:20:46;13.27;;;5.05;;
32760;SDS011;19126;47.472;7.850;2023-05-07T11:26:26;12.77;;;5.55;;
32760;SDS011;19126;47.472;7.850;2023-05-07T11:28:57;12.85;;;6.20;;
32760;SDS011;19126;47.472;7.850;2023-05-07T11:31:27;7.82;;;5.43;;
32760;SDS011;19126;47.472;7.850;2023-05-07T11:33:57;15.00;;;5.57;;
32760;SDS011;19126;47.472;7.850;2023-05-07T11:36:25;14.50;;;6.00;;
32760;SDS011;19126;47.472;7.850;2023-05-07T11:38:58;15.20;;;6.13;;
32760;SDS011;19126;47.472;7.850;2023-05-07T11:41:32;25.27;;;8.85;;
32760;SDS011;19126;47.472;7.850;2023-05-07T11:44:03;29.15;;;9.60;;
32760;SDS011;19126;47.472;7.850;2023-05-07T11:46:30;14.98;;;7.50;;
32760;SDS011;19126;47.472;7.850;2023-05-07T11:48:58;19.38;;;8.00;;
32760;SDS011;19126;47.472;7.850;2023-05-07T11:51:27;14.43;;;6.18;;
32760;SDS011;19126;47.472;7.850;2023-05-07T11:53:55;16.77;;;5.55;;
32760;SDS011;19126;47.472;7.850;2023-05-07T11:56:22;15.43;;;6.10;;
32760;SDS011;19126;47.472;7.850;2023-05-07T11:58:50;13.27;;;5.55;;
32760;SDS011;19126;47.472;7.850;2023-05-07T12:01:18;8.75;;;5.35;;
32760;SDS011;19126;47.472;7.850;2023-05-07T12:03:46;9.77;;;4.90;;
32760;SDS011;19126;47.472;7.850;2023-05-07T12:06:14;9.05;;;4.90;;
32760;SDS011;19126;47.472;7.850;2023-05-07T12:08:43;13.57;;;5.22;;
32760;SDS011;19126;47.472;7.850;2023-05-07T12:11:12;14.80;;;4.10;;
32760;SDS011;19126;47.472;7.850;2023-05-07T12:13:43;18.02;;;4.57;;
32760;SDS011;19126;47.472;7.850;2023-05-07T12:16:10;20.52;;;4.32;;
32760;SDS011;19126;47.472;7.850;2023-05-07T12:18:39;24.95;;;4.65;;
32760;SDS011;19126;47.472;7.850;2023-05-07T12:21:07;19.05;;;4.40;;
32760;SDS011;19126;47.472;7.850;2023-05-07T12:23:36;18.13;;;4.10;;
32760;SDS011;19126;47.472;7.850;2023-05-07T12:26:04;18.58;;;4.60;;
32760;SDS011;19126;47.472;7.850;2023-05-07T12:28:35;9.90;;;3.92;;
32760;SDS011;19126;47.472;7.850;2023-05-07T12:31:04;8.90;;;4.15;;
32760;SDS011;19126;47.472;7.850;2023-05-07T12:33:32;7.18;;;3.65;;
32760;SDS011;19126;47.472;7.850;2023-05-07T12:36:07;9.60;;;4.03;;
32760;SDS011;19126;47.472;7.850;2023-05-07T12:38:36;13.52;;;3.25;;
32760;SDS011;19126;47.472;7.850;2023-05-07T12:41:05;6.78;;;3.70;;
32760;SDS011;19126;47.472;7.850;2023-05-07T12:43:35;7.55;;;3.75;;
32760;SDS011;19126;47.472;7.850;2023-05-07T12:46:03;6.57;;;3.13;;
32760;SDS011;19126;47.472;7.850;2023-05-07T12:48:32;14.63;;;4.20;;
32760;SDS011;19126;47.472;7.850;2023-05-07T12:51:02;7.40;;;3.40;;
32760;SDS011;19126;47.472;7.850;2023-05-07T12:53:32;6.13;;;3.95;;
32760;SDS011;19126;47.472;7.850;2023-05-07T12:56:05;7.55;;;3.13;;
32760;SDS011;19126;47.472;7.850;2023-05-07T12:58:33;11.77;;;3.83;;
32760;SDS011;19126;47.472;7.850;2023-05-07T13:01:04;6.47;;;3.88;;
32760;SDS011;19126;47.472;7.850;2023-05-07T13:03:35;9.10;;;3.45;;
32760;SDS011;19126;47.472;7.850;2023-05-07T13:06:04;11.63;;;4.53;;
32760;SDS011;19126;47.472;7.850;2023-05-07T13:08:36;5.30;;;3.50;;
32760;SDS011;19126;47.472;7.850;2023-05-07T13:11:06;9.93;;;3.03;;
32760;SDS011;19126;47.472;7.850;2023-05-07T13:13:36;11.40;;;3.88;;
32760;SDS011;19126;47.472;7.850;2023-05-07T13:16:05;7.85;;;3.05;;
32760;SDS011;19126;47.472;7.850;2023-05-07T13:18:34;3.25;;;2.85;;
32760;SDS011;19126;47.472;7.850;2023-05-07T13:21:02;6.43;;;3.10;;
32760;SDS011;19126;47.472;7.850;2023-05-07T13:23:30;5.90;;;3.38;;
32760;SDS011;19126;47.472;7.850;2023-05-07T13:25:59;8.25;;;3.05;;
32760;SDS011;19126;47.472;7.850;2023-05-07T13:28:26;5.43;;;2.83;;
32760;SDS011;19126;47.472;7.850;2023-05-07T13:30:56;5.57;;;3.03;;
32760;SDS011;19126;47.472;7.850;2023-05-07T13:33:23;5.28;;;2.65;;
32760;SDS011;19126;47.472;7.850;2023-05-07T13:35:50;6.65;;;2.60;;
32760;SDS011;19126;47.472;7.850;2023-05-07T13:38:18;4.18;;;2.47;;
32760;SDS011;19126;47.472;7.850;2023-05-07T13:40:45;4.43;;;2.15;;
32760;SDS011;19126;47.472;7.850;2023-05-07T13:43:14;4.55;;;2.25;;
32760;SDS011;19126;47.472;7.850;2023-05-07T13:45:42;5.43;;;1.88;;
32760;SDS011;19126;47.472;7.850;2023-05-07T13:48:09;3.20;;;1.73;;
32760;SDS011;19126;47.472;7.850;2023-05-07T13:50:37;5.93;;;1.55;;
32760;SDS011;19126;47.472;7.850;2023-05-07T13:53:04;8.18;;;1.95;;
32760;SDS011;19126;47.472;7.850;2023-05-07T13:55:31;3.55;;;1.60;;
32760;SDS011;19126;47.472;7.850;2023-05-07T13:57:59;1.70;;;1.27;;
32760;SDS011;19126;47.472;7.850;2023-05-07T14:00:30;3.90;;;1.70;;
32760;SDS011;19126;47.472;7.850;2023-05-07T14:02:57;1.95;;;1.38;;
32760;SDS011;19126;47.472;7.850;2023-05-07T14:05:24;3.53;;;1.42;;
32760;SDS011;19126;47.472;7.850;2023-05-07T14:07:53;4.40;;;1.77;;
32760;SDS011;19126;47.472;7.850;2023-05-07T14:10:21;3.63;;;1.40;;
32760;SDS011;19126;47.472;7.850;2023-05-07T14:12:49;3.00;;;1.60;;
32760;SDS011;19126;47.472;7.850;2023-05-07T14:15:17;2.30;;;1.80;;
32760;SDS011;19126;47.472;7.850;2023-05-07T14:17:46;7.50;;;2.08;;
32760;SDS011;19126;47.472;7.850;2023-05-07T14:20:14;5.35;;;1.80;;
32760;SDS011;19126;47.472;7.850;2023-05-07T14:22:41;4.35;;;1.88;;
32760;SDS011;19126;47.472;7.850;2023-05-07T14:25:08;4.10;;;2.00;;
32760;SDS011;19126;47.472;7.850;2023-05-07T14:27:36;6.40;;;1.58;;
32760;SDS011;19126;47.472;7.850;2023-05-07T14:30:04;4.40;;;1.65;;
32760;SDS011;19126;47.472;7.850;2023-05-07T14:32:33;2.85;;;1.40;;
32760;SDS011;19126;47.472;7.850;2023-05-07T14:35:02;2.92;;;1.60;;
32760;SDS011;19126;47.472;7.850;2023-05-07T14:37:30;3.05;;;1.90;;
32760;SDS011;19126;47.472;7.850;2023-05-07T14:39:57;5.03;;;2.20;;
32760;SDS011;19126;47.472;7.850;2023-05-07T14:42:24;11.27;;;2.05;;
32760;SDS011;19126;47.472;7.850;2023-05-07T14:44:52;4.15;;;1.90;;
32760;SDS011;19126;47.472;7.850;2023-05-07T14:47:19;5.45;;;1.67;;
32760;SDS011;19126;47.472;7.850;2023-05-07T14:49:46;2.97;;;1.80;;
32760;SDS011;19126;47.472;7.850;2023-05-07T14:52:15;4.68;;;2.40;;
32760;SDS011;19126;47.472;7.850;2023-05-07T14:54:42;3.92;;;1.70;;
32760;SDS011;19126;47.472;7.850;2023-05-07T14:57:10;4.05;;;1.92;;